CheckWX is a tool to help pilots better visualize weather data.  It is not intended as a substitute for an official pre-flight weather briefing.

02:15:29 UTC

KGKT METAR
Gatlinburg-Pigeon Forge Airport
Sevierville, Tennessee, USA
Current

20 mins ago

KGKT 190155Z AUTO 09004KT 10SM BKN055 OVC065 25/18 A3006 RMK A01
Observed
Sep-19 @ 01:55 UTC
Wind
  • 090° at 4 KTS
Visibility
10 SM
Flight Rules
VFR
Cloud Levels
  • Broken at 5,500' AGL
  • Overcast at 6,500' AGL
Temperature
25°C / 77°F
Dewpoint
18°C / 64°F
Humidity
65%
Altimeter
30.06" Hg
Pressure
1017.92 hPa
Previous

40 mins ago

KGKT 190135Z AUTO 09004KT 10SM OVC055 25/18 A3005 RMK A01
Observed
Sep-19 @ 01:35 UTC
Wind
  • 090° at 4 KTS
Visibility
10 SM
Flight Rules
VFR
Cloud Levels
  • Overcast at 5,500' AGL
Temperature
25°C / 77°F
Dewpoint
18°C / 64°F
Humidity
65%
Altimeter
30.05" Hg
Pressure
1017.62 hPa
Previous

60 mins ago

KGKT 190115Z AUTO 11003KT 10SM BKN055 OVC065 25/18 A3004 RMK A01
Observed
Sep-19 @ 01:15 UTC
Wind
  • 110° at 3 KTS
Visibility
10 SM
Flight Rules
VFR
Cloud Levels
  • Broken at 5,500' AGL
  • Overcast at 6,500' AGL
Temperature
25°C / 77°F
Dewpoint
18°C / 64°F
Humidity
65%
Altimeter
30.04" Hg
Pressure
1017.32 hPa